sensor_id;sensor_type;location;lat;lon;timestamp;temperature;humidity
17178;DHT22;8704;52.006;4.374;2022-09-17T00:01:28;11.80;99.90
17178;DHT22;8704;52.006;4.374;2022-09-17T00:03:58;11.70;99.90
17178;DHT22;8704;52.006;4.374;2022-09-17T00:06:29;11.90;99.90
17178;DHT22;8704;52.006;4.374;2022-09-17T00:08:58;11.90;99.90
17178;DHT22;8704;52.006;4.374;2022-09-17T00:11:28;11.90;99.90
17178;DHT22;8704;52.006;4.374;2022-09-17T00:13:59;11.90;99.90
17178;DHT22;8704;52.006;4.374;2022-09-17T00:16:29;11.90;99.90
17178;DHT22;8704;52.006;4.374;2022-09-17T00:18:58;11.90;99.90
17178;DHT22;8704;52.006;4.374;2022-09-17T00:21:27;11.90;99.90
17178;DHT22;8704;52.006;4.374;2022-09-17T00:23:56;12.00;99.90
17178;DHT22;8704;52.006;4.374;2022-09-17T00:26:25;12.00;99.90
17178;DHT22;8704;52.006;4.374;2022-09-17T00:28:54;12.10;99.90
17178;DHT22;8704;52.006;4.374;2022-09-17T00:31:25;12.10;99.90
17178;DHT22;8704;52.006;4.374;2022-09-17T00:33:53;12.20;99.90
17178;DHT22;8704;52.006;4.374;2022-09-17T00:36:21;12.20;99.90
17178;DHT22;8704;52.006;4.374;2022-09-17T00:38:50;12.20;99.90
17178;DHT22;8704;52.006;4.374;2022-09-17T00:41:18;12.10;99.90
17178;DHT22;8704;52.006;4.374;2022-09-17T00:43:48;12.00;99.90
17178;DHT22;8704;52.006;4.374;2022-09-17T00:46:27;11.90;99.90
17178;DHT22;8704;52.006;4.374;2022-09-17T00:48:58;11.90;99.90
17178;DHT22;8704;52.006;4.374;2022-09-17T00:51:33;11.90;99.90
17178;DHT22;8704;52.006;4.374;2022-09-17T00:54:03;11.90;99.90
17178;DHT22;8704;52.006;4.374;2022-09-17T00:56:34;11.80;99.90
17178;DHT22;8704;52.006;4.374;2022-09-17T00:59:03;11.80;99.90
17178;DHT22;8704;52.006;4.374;2022-09-17T01:01:33;11.80;99.90
17178;DHT22;8704;52.006;4.374;2022-09-17T01:04:01;11.80;99.90
17178;DHT22;8704;52.006;4.374;2022-09-17T01:06:33;11.80;99.90
17178;DHT22;8704;52.006;4.374;2022-09-17T01:09:11;11.70;99.90
17178;DHT22;8704;52.006;4.374;2022-09-17T01:12:11;11.70;99.90
17178;DHT22;8704;52.006;4.374;2022-09-17T01:14:59;11.80;99.90
17178;DHT22;8704;52.006;4.374;2022-09-17T01:17:37;11.70;99.90
17178;DHT22;8704;52.006;4.374;2022-09-17T01:20:28;11.60;99.90
17178;DHT22;8704;52.006;4.374;2022-09-17T01:23:20;11.70;99.90
17178;DHT22;8704;52.006;4.374;2022-09-17T01:26:01;11.60;99.90
17178;DHT22;8704;52.006;4.374;2022-09-17T01:28:34;11.70;99.90
17178;DHT22;8704;52.006;4.374;2022-09-17T01:31:18;11.80;99.90
17178;DHT22;8704;52.006;4.374;2022-09-17T01:33:55;11.80;99.90
17178;DHT22;8704;52.006;4.374;2022-09-17T01:36:37;11.80;99.90
17178;DHT22;8704;52.006;4.374;2022-09-17T01:39:15;11.70;99.90
17178;DHT22;8704;52.006;4.374;2022-09-17T01:41:50;11.60;99.90
17178;DHT22;8704;52.006;4.374;2022-09-17T01:44:25;11.60;99.90
17178;DHT22;8704;52.006;4.374;2022-09-17T01:47:02;11.60;99.90
17178;DHT22;8704;52.006;4.374;2022-09-17T01:49:33;11.60;99.90
17178;DHT22;8704;52.006;4.374;2022-09-17T01:52:04;11.60;99.90
17178;DHT22;8704;52.006;4.374;2022-09-17T01:54:36;11.70;99.90
17178;DHT22;8704;52.006;4.374;2022-09-17T01:57:11;11.70;99.90
17178;DHT22;8704;52.006;4.374;2022-09-17T01:59:45;11.70;99.90
17178;DHT22;8704;52.006;4.374;2022-09-17T02:02:19;11.70;99.90
17178;DHT22;8704;52.006;4.374;2022-09-17T02:04:54;11.80;99.90
17178;DHT22;8704;52.006;4.374;2022-09-17T02:07:24;11.80;99.90
17178;DHT22;8704;52.006;4.374;2022-09-17T02:09:56;11.80;99.90
17178;DHT22;8704;52.006;4.374;2022-09-17T02:12:30;11.80;99.90
17178;DHT22;8704;52.006;4.374;2022-09-17T02:15:02;11.70;99.90
17178;DHT22;8704;52.006;4.374;2022-09-17T02:17:38;11.80;99.90
17178;DHT22;8704;52.006;4.374;2022-09-17T02:20:06;11.90;99.90
17178;DHT22;8704;52.006;4.374;2022-09-17T02:22:40;11.90;99.90
17178;DHT22;8704;52.006;4.374;2022-09-17T02:25:14;11.90;99.90
17178;DHT22;8704;52.006;4.374;2022-09-17T02:27:51;11.90;99.90
17178;DHT22;8704;52.006;4.374;2022-09-17T02:30:22;11.90;99.90
17178;DHT22;8704;52.006;4.374;2022-09-17T02:32:52;12.00;99.90
17178;DHT22;8704;52.006;4.374;2022-09-17T02:35:20;12.00;99.90
17178;DHT22;8704;52.006;4.374;2022-09-17T02:37:49;11.90;99.90
17178;DHT22;8704;52.006;4.374;2022-09-17T02:40:20;11.90;99.90
17178;DHT22;8704;52.006;4.374;2022-09-17T02:42:59;11.90;99.90
17178;DHT22;8704;52.006;4.374;2022-09-17T02:45:39;12.00;99.90
17178;DHT22;8704;52.006;4.374;2022-09-17T02:48:45;12.10;99.90
17178;DHT22;8704;52.006;4.374;2022-09-17T02:51:24;12.10;99.90
17178;DHT22;8704;52.006;4.374;2022-09-17T02:53:57;12.20;99.90
17178;DHT22;8704;52.006;4.374;2022-09-17T02:56:34;12.20;99.90
17178;DHT22;8704;52.006;4.374;2022-09-17T02:59:14;12.10;99.90
17178;DHT22;8704;52.006;4.374;2022-09-17T03:01:50;12.10;99.90
17178;DHT22;8704;52.006;4.374;2022-09-17T03:04:21;12.10;99.90
17178;DHT22;8704;52.006;4.374;2022-09-17T03:06:51;12.10;99.90
17178;DHT22;8704;52.006;4.374;2022-09-17T03:09:19;12.10;99.90
17178;DHT22;8704;52.006;4.374;2022-09-17T03:11:47;12.10;99.90
17178;DHT22;8704;52.006;4.374;2022-09-17T03:14:15;12.10;99.90
17178;DHT22;8704;52.006;4.374;2022-09-17T03:16:46;12.10;99.90
17178;DHT22;8704;52.006;4.374;2022-09-17T03:19:14;12.10;99.90
17178;DHT22;8704;52.006;4.374;2022-09-17T03:21:43;12.20;99.90
17178;DHT22;8704;52.006;4.374;2022-09-17T03:24:11;12.10;99.90
17178;DHT22;8704;52.006;4.374;2022-09-17T03:26:39;12.20;99.90
17178;DHT22;8704;52.006;4.374;2022-09-17T03:29:07;12.30;81.10
17178;DHT22;8704;52.006;4.374;2022-09-17T03:31:35;12.30;99.90
17178;DHT22;8704;52.006;4.374;2022-09-17T03:34:03;12.20;99.70
17178;DHT22;8704;52.006;4.374;2022-09-17T03:36:31;12.10;91.20
17178;DHT22;8704;52.006;4.374;2022-09-17T03:39:00;12.20;86.10
17178;DHT22;8704;52.006;4.374;2022-09-17T03:41:28;12.30;25.20
17178;DHT22;8704;52.006;4.374;2022-09-17T03:43:56;12.30;55.50
17178;DHT22;8704;52.006;4.374;2022-09-17T03:46:24;12.30;34.30
17178;DHT22;8704;52.006;4.374;2022-09-17T03:48:52;12.30;56.40
17178;DHT22;8704;52.006;4.374;2022-09-17T03:51:20;12.30;78.10
17178;DHT22;8704;52.006;4.374;2022-09-17T03:53:48;12.20;99.90
17178;DHT22;8704;52.006;4.374;2022-09-17T03:56:17;12.20;99.90
17178;DHT22;8704;52.006;4.374;2022-09-17T03:58:45;12.20;99.90
17178;DHT22;8704;52.006;4.374;2022-09-17T04:01:13;12.30;99.90
17178;DHT22;8704;52.006;4.374;2022-09-17T04:03:41;12.20;99.90
17178;DHT22;8704;52.006;4.374;2022-09-17T04:06:10;12.20;99.90
17178;DHT22;8704;52.006;4.374;2022-09-17T04:08:38;12.20;99.90
17178;DHT22;8704;52.006;4.374;2022-09-17T04:11:06;12.20;99.90
17178;DHT22;8704;52.006;4.374;2022-09-17T04:13:35;12.10;99.90
17178;DHT22;8704;52.006;4.374;2022-09-17T04:16:04;12.10;99.90
17178;DHT22;8704;52.006;4.374;2022-09-17T04:18:32;12.10;99.90
17178;DHT22;8704;52.006;4.374;2022-09-17T04:21:00;12.80;99.90
17178;DHT22;8704;52.006;4.374;2022-09-17T04:23:29;12.20;99.90
17178;DHT22;8704;52.006;4.374;2022-09-17T04:25:57;12.20;94.10
17178;DHT22;8704;52.006;4.374;2022-09-17T04:28:25;12.30;99.90
17178;DHT22;8704;52.006;4.374;2022-09-17T04:30:54;12.30;87.30
17178;DHT22;8704;52.006;4.374;2022-09-17T04:33:23;12.40;82.60
17178;DHT22;8704;52.006;4.374;2022-09-17T04:35:52;12.40;99.90
17178;DHT22;8704;52.006;4.374;2022-09-17T04:38:20;12.40;95.00
17178;DHT22;8704;52.006;4.374;2022-09-17T04:40:48;12.40;99.90
17178;DHT22;8704;52.006;4.374;2022-09-17T04:43:17;12.40;96.00
17178;DHT22;8704;52.006;4.374;2022-09-17T04:45:45;12.40;41.40
17178;DHT22;8704;52.006;4.374;2022-09-17T04:48:15;12.40;63.80
17178;DHT22;8704;52.006;4.374;2022-09-17T04:50:43;12.40;41.80
17178;DHT22;8704;52.006;4.374;2022-09-17T04:53:11;12.30;71.20
17178;DHT22;8704;52.006;4.374;2022-09-17T04:55:39;12.40;55.20
17178;DHT22;8704;52.006;4.374;2022-09-17T04:58:07;12.40;95.80
17178;DHT22;8704;52.006;4.374;2022-09-17T05:00:35;12.30;99.90
17178;DHT22;8704;52.006;4.374;2022-09-17T05:03:03;12.30;85.50
17178;DHT22;8704;52.006;4.374;2022-09-17T05:05:33;12.30;90.50
17178;DHT22;8704;52.006;4.374;2022-09-17T05:08:01;12.30;80.60
17178;DHT22;8704;52.006;4.374;2022-09-17T05:10:30;12.30;95.80
17178;DHT22;8704;52.006;4.374;2022-09-17T05:12:57;12.20;99.90
17178;DHT22;8704;52.006;4.374;2022-09-17T05:15:26;12.20;99.90
17178;DHT22;8704;52.006;4.374;2022-09-17T05:17:54;12.20;98.30
17178;DHT22;8704;52.006;4.374;2022-09-17T05:20:22;12.20;99.90
17178;DHT22;8704;52.006;4.374;2022-09-17T05:22:51;12.20;99.90
17178;DHT22;8704;52.006;4.374;2022-09-17T05:25:21;12.30;99.90
17178;DHT22;8704;52.006;4.374;2022-09-17T05:27:50;12.10;99.90
17178;DHT22;8704;52.006;4.374;2022-09-17T05:30:19;11.90;99.90
17178;DHT22;8704;52.006;4.374;2022-09-17T05:32:47;11.80;99.90
17178;DHT22;8704;52.006;4.374;2022-09-17T05:35:16;12.30;99.90
17178;DHT22;8704;52.006;4.374;2022-09-17T05:37:44;11.70;99.90
17178;DHT22;8704;52.006;4.374;2022-09-17T05:40:13;11.70;99.90
17178;DHT22;8704;52.006;4.374;2022-09-17T05:42:42;11.60;99.90
17178;DHT22;8704;52.006;4.374;2022-09-17T05:45:10;11.60;99.90
17178;DHT22;8704;52.006;4.374;2022-09-17T05:47:38;11.50;99.90
17178;DHT22;8704;52.006;4.374;2022-09-17T05:50:06;11.50;99.90
17178;DHT22;8704;52.006;4.374;2022-09-17T05:52:34;11.40;99.90
17178;DHT22;8704;52.006;4.374;2022-09-17T05:55:03;11.40;99.90
17178;DHT22;8704;52.006;4.374;2022-09-17T05:57:32;11.40;99.90
17178;DHT22;8704;52.006;4.374;2022-09-17T06:00:00;11.40;99.90
17178;DHT22;8704;52.006;4.374;2022-09-17T06:02:28;11.50;99.90
17178;DHT22;8704;52.006;4.374;2022-09-17T06:04:56;11.50;99.90
17178;DHT22;8704;52.006;4.374;2022-09-17T06:07:27;11.50;99.90
17178;DHT22;8704;52.006;4.374;2022-09-17T06:09:55;11.50;99.90
17178;DHT22;8704;52.006;4.374;2022-09-17T06:12:23;11.50;99.90
17178;DHT22;8704;52.006;4.374;2022-09-17T06:14:52;11.50;99.90
17178;DHT22;8704;52.006;4.374;2022-09-17T06:17:20;11.50;99.90
17178;DHT22;8704;52.006;4.374;2022-09-17T06:19:48;11.50;99.90
17178;DHT22;8704;52.006;4.374;2022-09-17T06:22:17;11.50;99.90
17178;DHT22;8704;52.006;4.374;2022-09-17T06:24:46;11.50;99.90
17178;DHT22;8704;52.006;4.374;2022-09-17T06:27:14;11.50;99.90
17178;DHT22;8704;52.006;4.374;2022-09-17T06:29:41;11.50;99.90
17178;DHT22;8704;52.006;4.374;2022-09-17T06:32:11;11.50;99.90
17178;DHT22;8704;52.006;4.374;2022-09-17T06:34:41;11.60;99.90
17178;DHT22;8704;52.006;4.374;2022-09-17T06:37:09;11.70;99.90
17178;DHT22;8704;52.006;4.374;2022-09-17T06:39:37;11.70;99.90
17178;DHT22;8704;52.006;4.374;2022-09-17T06:42:05;11.80;99.90
17178;DHT22;8704;52.006;4.374;2022-09-17T06:44:33;11.80;99.90
17178;DHT22;8704;52.006;4.374;2022-09-17T06:47:01;12.10;99.90
17178;DHT22;8704;52.006;4.374;2022-09-17T06:49:30;11.90;99.90
17178;DHT22;8704;52.006;4.374;2022-09-17T06:51:58;11.90;99.90
17178;DHT22;8704;52.006;4.374;2022-09-17T06:54:27;11.90;99.90
17178;DHT22;8704;52.006;4.374;2022-09-17T06:56:55;12.00;99.90
17178;DHT22;8704;52.006;4.374;2022-09-17T06:59:23;12.10;99.90
17178;DHT22;8704;52.006;4.374;2022-09-17T07:01:51;12.10;99.90
17178;DHT22;8704;52.006;4.374;2022-09-17T07:04:19;12.20;99.90
17178;DHT22;8704;52.006;4.374;2022-09-17T07:06:48;12.20;99.90
17178;DHT22;8704;52.006;4.374;2022-09-17T07:09:16;12.20;99.90
17178;DHT22;8704;52.006;4.374;2022-09-17T07:11:44;12.20;99.90
17178;DHT22;8704;52.006;4.374;2022-09-17T07:14:12;12.20;99.90
17178;DHT22;8704;52.006;4.374;2022-09-17T07:16:40;12.10;99.90
17178;DHT22;8704;52.006;4.374;2022-09-17T07:19:08;12.10;99.90
17178;DHT22;8704;52.006;4.374;2022-09-17T07:21:40;12.20;99.90
17178;DHT22;8704;52.006;4.374;2022-09-17T07:24:09;12.40;99.90
17178;DHT22;8704;52.006;4.374;2022-09-17T07:26:37;12.20;99.90
17178;DHT22;8704;52.006;4.374;2022-09-17T07:29:05;12.90;99.90
17178;DHT22;8704;52.006;4.374;2022-09-17T07:31:33;12.60;99.90
17178;DHT22;8704;52.006;4.374;2022-09-17T07:34:01;12.60;99.90
17178;DHT22;8704;52.006;4.374;2022-09-17T07:36:29;12.70;99.90
17178;DHT22;8704;52.006;4.374;2022-09-17T07:38:57;12.70;99.90
17178;DHT22;8704;52.006;4.374;2022-09-17T07:41:26;12.80;73.80
17178;DHT22;8704;52.006;4.374;2022-09-17T07:43:54;13.00;71.30
17178;DHT22;8704;52.006;4.374;2022-09-17T07:46:22;13.00;99.90
17178;DHT22;8704;52.006;4.374;2022-09-17T07:48:51;13.10;99.90
17178;DHT22;8704;52.006;4.374;2022-09-17T07:51:20;13.10;99.90
17178;DHT22;8704;52.006;4.374;2022-09-17T07:53:50;13.20;99.90
17178;DHT22;8704;52.006;4.374;2022-09-17T07:56:18;13.50;99.90
17178;DHT22;8704;52.006;4.374;2022-09-17T07:58:47;13.40;99.90
17178;DHT22;8704;52.006;4.374;2022-09-17T08:01:16;13.30;99.90
17178;DHT22;8704;52.006;4.374;2022-09-17T08:03:48;13.20;99.90
17178;DHT22;8704;52.006;4.374;2022-09-17T08:06:18;13.10;99.90
17178;DHT22;8704;52.006;4.374;2022-09-17T08:08:46;12.90;99.90
17178;DHT22;8704;52.006;4.374;2022-09-17T08:11:16;12.80;99.90
17178;DHT22;8704;52.006;4.374;2022-09-17T08:14:08;12.80;99.90
17178;DHT22;8704;52.006;4.374;2022-09-17T08:16:36;12.90;99.90
17178;DHT22;8704;52.006;4.374;2022-09-17T08:19:04;13.00;99.90
17178;DHT22;8704;52.006;4.374;2022-09-17T08:21:32;13.20;99.90
17178;DHT22;8704;52.006;4.374;2022-09-17T08:24:00;13.20;99.90
17178;DHT22;8704;52.006;4.374;2022-09-17T08:26:28;13.10;99.90
17178;DHT22;8704;52.006;4.374;2022-09-17T08:28:56;13.00;99.90
17178;DHT22;8704;52.006;4.374;2022-09-17T08:31:25;12.90;99.90
17178;DHT22;8704;52.006;4.374;2022-09-17T08:33:56;12.90;99.90
17178;DHT22;8704;52.006;4.374;2022-09-17T08:36:25;12.90;99.90
17178;DHT22;8704;52.006;4.374;2022-09-17T08:38:54;13.30;99.90
17178;DHT22;8704;52.006;4.374;2022-09-17T08:41:29;13.00;99.90
17178;DHT22;8704;52.006;4.374;2022-09-17T08:44:06;13.20;99.90
17178;DHT22;8704;52.006;4.374;2022-09-17T08:46:45;13.50;99.90
17178;DHT22;8704;52.006;4.374;2022-09-17T08:49:23;13.20;99.90
17178;DHT22;8704;52.006;4.374;2022-09-17T08:52:11;13.40;99.90
17178;DHT22;8704;52.006;4.374;2022-09-17T08:54:48;13.50;99.90
17178;DHT22;8704;52.006;4.374;2022-09-17T08:57:24;13.50;99.90
17178;DHT22;8704;52.006;4.374;2022-09-17T09:00:00;13.30;99.90
17178;DHT22;8704;52.006;4.374;2022-09-17T09:02:49;13.30;99.90
17178;DHT22;8704;52.006;4.374;2022-09-17T09:05:24;13.40;99.90
17178;DHT22;8704;52.006;4.374;2022-09-17T09:08:01;13.40;99.90
17178;DHT22;8704;52.006;4.374;2022-09-17T09:10:37;13.60;99.90
17178;DHT22;8704;52.006;4.374;2022-09-17T09:13:12;13.80;99.90
17178;DHT22;8704;52.006;4.374;2022-09-17T09:15:44;13.90;99.90
17178;DHT22;8704;52.006;4.374;2022-09-17T09:18:18;14.00;99.90
17178;DHT22;8704;52.006;4.374;2022-09-17T09:20:47;14.00;99.90
17178;DHT22;8704;52.006;4.374;2022-09-17T09:23:19;14.00;99.90
17178;DHT22;8704;52.006;4.374;2022-09-17T09:25:52;14.10;99.90
17178;DHT22;8704;52.006;4.374;2022-09-17T09:31:34;14.10;99.90
17178;DHT22;8704;52.006;4.374;2022-09-17T09:34:08;14.10;99.90
17178;DHT22;8704;52.006;4.374;2022-09-17T09:36:38;14.00;99.90
17178;DHT22;8704;52.006;4.374;2022-09-17T09:39:12;14.00;99.90
17178;DHT22;8704;52.006;4.374;2022-09-17T09:41:44;14.20;99.90
17178;DHT22;8704;52.006;4.374;2022-09-17T09:44:14;14.20;99.90
17178;DHT22;8704;52.006;4.374;2022-09-17T09:46:57;14.40;88.10
17178;DHT22;8704;52.006;4.374;2022-09-17T09:49:36;14.50;99.90
17178;DHT22;8704;52.006;4.374;2022-09-17T09:52:18;14.70;90.90
17178;DHT22;8704;52.006;4.374;2022-09-17T09:54:58;15.40;99.90
17178;DHT22;8704;52.006;4.374;2022-09-17T09:57:37;15.00;98.60
17178;DHT22;8704;52.006;4.374;2022-09-17T10:00:33;15.00;99.90
17178;DHT22;8704;52.006;4.374;2022-09-17T10:03:09;15.00;99.90
17178;DHT22;8704;52.006;4.374;2022-09-17T10:05:51;14.90;99.90
17178;DHT22;8704;52.006;4.374;2022-09-17T10:08:19;14.80;87.30
17178;DHT22;8704;52.006;4.374;2022-09-17T10:10:59;14.90;99.90
17178;DHT22;8704;52.006;4.374;2022-09-17T10:13:29;15.40;99.90
17178;DHT22;8704;52.006;4.374;2022-09-17T10:16:15;15.10;99.90
17178;DHT22;8704;52.006;4.374;2022-09-17T10:18:44;15.20;99.90
17178;DHT22;8704;52.006;4.374;2022-09-17T10:21:20;15.20;81.10
17178;DHT22;8704;52.006;4.374;2022-09-17T10:23:49;15.60;1.00
17178;DHT22;8704;52.006;4.374;2022-09-17T10:26:21;15.20;1.00
17178;DHT22;8704;52.006;4.374;2022-09-17T10:28:52;15.20;1.00
17178;DHT22;8704;52.006;4.374;2022-09-17T10:31:22;15.10;1.00
17178;DHT22;8704;52.006;4.374;2022-09-17T10:33:52;15.10;1.00
17178;DHT22;8704;52.006;4.374;2022-09-17T10:36:38;15.20;1.00
17178;DHT22;8704;52.006;4.374;2022-09-17T10:39:39;15.50;1.00
17178;DHT22;8704;52.006;4.374;2022-09-17T10:42:13;15.80;1.00
17178;DHT22;8704;52.006;4.374;2022-09-17T10:44:50;15.70;1.00
17178;DHT22;8704;52.006;4.374;2022-09-17T10:47:21;15.50;17.70
17178;DHT22;8704;52.006;4.374;2022-09-17T10:49:54;15.50;1.00
17178;DHT22;8704;52.006;4.374;2022-09-17T10:52:26;15.80;46.50
17178;DHT22;8704;52.006;4.374;2022-09-17T10:55:10;15.90;1.00
17178;DHT22;8704;52.006;4.374;2022-09-17T10:58:01;16.00;1.00
17178;DHT22;8704;52.006;4.374;2022-09-17T11:00:39;15.60;1.00
17178;DHT22;8704;52.006;4.374;2022-09-17T11:06:23;15.60;1.00
17178;DHT22;8704;52.006;4.374;2022-09-17T11:09:04;15.90;99.90
17178;DHT22;8704;52.006;4.374;2022-09-17T11:11:45;16.00;1.00
17178;DHT22;8704;52.006;4.374;2022-09-17T11:14:34;16.30;1.00
17178;DHT22;8704;52.006;4.374;2022-09-17T11:17:10;16.40;1.00
17178;DHT22;8704;52.006;4.374;2022-09-17T11:19:47;16.60;1.00
17178;DHT22;8704;52.006;4.374;2022-09-17T11:22:24;16.80;99.90
17178;DHT22;8704;52.006;4.374;2022-09-17T11:27:59;16.70;1.00
17178;DHT22;8704;52.006;4.374;2022-09-17T11:30:35;16.40;1.00
17178;DHT22;8704;52.006;4.374;2022-09-17T11:33:22;16.20;20.00
17178;DHT22;8704;52.006;4.374;2022-09-17T11:35:56;16.40;1.00
17178;DHT22;8704;52.006;4.374;2022-09-17T11:38:33;16.30;99.90
17178;DHT22;8704;52.006;4.374;2022-09-17T11:41:10;16.20;1.00
17178;DHT22;8704;52.006;4.374;2022-09-17T11:43:43;15.90;1.00
17178;DHT22;8704;52.006;4.374;2022-09-17T11:46:16;15.90;99.90
17178;DHT22;8704;52.006;4.374;2022-09-17T11:48:47;15.70;99.10
17178;DHT22;8704;52.006;4.374;2022-09-17T11:51:27;16.20;46.20
17178;DHT22;8704;52.006;4.374;2022-09-17T11:54:04;15.90;99.90
17178;DHT22;8704;52.006;4.374;2022-09-17T11:56:39;16.30;99.90
17178;DHT22;8704;52.006;4.374;2022-09-17T11:59:13;16.40;1.00
17178;DHT22;8704;52.006;4.374;2022-09-17T12:01:49;16.40;1.00
17178;DHT22;8704;52.006;4.374;2022-09-17T12:04:37;16.70;1.00
17178;DHT22;8704;52.006;4.374;2022-09-17T12:07:16;16.90;1.00
17178;DHT22;8704;52.006;4.374;2022-09-17T12:09:50;16.90;1.00
17178;DHT22;8704;52.006;4.374;2022-09-17T12:12:23;17.30;1.00
17178;DHT22;8704;52.006;4.374;2022-09-17T12:15:17;17.20;99.90
17178;DHT22;8704;52.006;4.374;2022-09-17T12:17:49;17.10;99.90
17178;DHT22;8704;52.006;4.374;2022-09-17T12:20:42;17.00;99.90
17178;DHT22;8704;52.006;4.374;2022-09-17T12:23:15;17.00;1.00
17178;DHT22;8704;52.006;4.374;2022-09-17T12:25:49;17.00;1.00
17178;DHT22;8704;52.006;4.374;2022-09-17T12:28:25;17.10;99.90
17178;DHT22;8704;52.006;4.374;2022-09-17T12:31:03;17.30;99.90
17178;DHT22;8704;52.006;4.374;2022-09-17T12:33:36;17.60;99.90
17178;DHT22;8704;52.006;4.374;2022-09-17T12:36:20;17.60;99.90
17178;DHT22;8704;52.006;4.374;2022-09-17T12:39:01;17.60;99.90
17178;DHT22;8704;52.006;4.374;2022-09-17T12:41:41;17.90;1.00
17178;DHT22;8704;52.006;4.374;2022-09-17T12:44:31;18.50;99.90
17178;DHT22;8704;52.006;4.374;2022-09-17T12:47:13;18.30;99.90
17178;DHT22;8704;52.006;4.374;2022-09-17T12:50:03;18.40;99.90
17178;DHT22;8704;52.006;4.374;2022-09-17T12:52:40;18.40;62.90
17178;DHT22;8704;52.006;4.374;2022-09-17T12:55:33;18.30;1.00
17178;DHT22;8704;52.006;4.374;2022-09-17T12:58:10;18.60;1.00
17178;DHT22;8704;52.006;4.374;2022-09-17T13:00:46;18.60;1.00
17178;DHT22;8704;52.006;4.374;2022-09-17T13:03:21;18.70;1.00
17178;DHT22;8704;52.006;4.374;2022-09-17T13:12:20;19.10;1.00
17178;DHT22;8704;52.006;4.374;2022-09-17T13:15:05;19.10;1.00
17178;DHT22;8704;52.006;4.374;2022-09-17T13:17:48;18.70;1.00
17178;DHT22;8704;52.006;4.374;2022-09-17T13:20:43;18.90;1.00
17178;DHT22;8704;52.006;4.374;2022-09-17T13:23:14;18.60;1.00
17178;DHT22;8704;52.006;4.374;2022-09-17T13:25:49;18.30;1.00
17178;DHT22;8704;52.006;4.374;2022-09-17T13:28:18;18.10;1.00
17178;DHT22;8704;52.006;4.374;2022-09-17T13:30:57;18.00;1.00
17178;DHT22;8704;52.006;4.374;2022-09-17T13:33:48;18.00;1.00
17178;DHT22;8704;52.006;4.374;2022-09-17T13:36:35;18.30;1.00
17178;DHT22;8704;52.006;4.374;2022-09-17T13:39:05;18.70;1.00
17178;DHT22;8704;52.006;4.374;2022-09-17T13:41:36;19.30;1.00
17178;DHT22;8704;52.006;4.374;2022-09-17T13:44:06;20.00;1.00
17178;DHT22;8704;52.006;4.374;2022-09-17T13:46:36;19.60;1.00
17178;DHT22;8704;52.006;4.374;2022-09-17T13:49:13;19.60;1.00
17178;DHT22;8704;52.006;4.374;2022-09-17T13:51:50;19.40;1.00
17178;DHT22;8704;52.006;4.374;2022-09-17T13:54:21;19.90;1.00
17178;DHT22;8704;52.006;4.374;2022-09-17T13:57:03;20.20;1.00
17178;DHT22;8704;52.006;4.374;2022-09-17T13:59:34;20.40;1.00
17178;DHT22;8704;52.006;4.374;2022-09-17T14:05:33;20.80;1.00
17178;DHT22;8704;52.006;4.374;2022-09-17T14:08:24;20.50;1.00
17178;DHT22;8704;52.006;4.374;2022-09-17T14:10:58;20.70;1.00
17178;DHT22;8704;52.006;4.374;2022-09-17T14:13:42;21.10;1.00
17178;DHT22;8704;52.006;4.374;2022-09-17T14:16:44;21.40;1.00
17178;DHT22;8704;52.006;4.374;2022-09-17T14:19:32;21.10;1.00
17178;DHT22;8704;52.006;4.374;2022-09-17T14:22:15;21.40;1.00
17178;DHT22;8704;52.006;4.374;2022-09-17T14:24:50;21.40;1.00
17178;DHT22;8704;52.006;4.374;2022-09-17T14:27:45;21.80;1.00
17178;DHT22;8704;52.006;4.374;2022-09-17T14:30:18;22.10;1.00
17178;DHT22;8704;52.006;4.374;2022-09-17T14:32:53;21.40;1.00
17178;DHT22;8704;52.006;4.374;2022-09-17T14:35:28;21.20;1.00
17178;DHT22;8704;52.006;4.374;2022-09-17T14:38:02;21.60;1.00
17178;DHT22;8704;52.006;4.374;2022-09-17T14:40:31;22.10;1.00
17178;DHT22;8704;52.006;4.374;2022-09-17T14:43:02;22.60;1.00
17178;DHT22;8704;52.006;4.374;2022-09-17T14:45:31;22.80;1.00
17178;DHT22;8704;52.006;4.374;2022-09-17T14:48:28;22.30;1.00
17178;DHT22;8704;52.006;4.374;2022-09-17T14:51:25;21.80;1.00
17178;DHT22;8704;52.006;4.374;2022-09-17T14:54:13;21.50;1.00
17178;DHT22;8704;52.006;4.374;2022-09-17T14:56:55;21.50;1.00
17178;DHT22;8704;52.006;4.374;2022-09-17T14:59:41;21.30;1.00
17178;DHT22;8704;52.006;4.374;2022-09-17T15:02:22;20.90;1.00
17178;DHT22;8704;52.006;4.374;2022-09-17T15:04:53;20.60;1.00
17178;DHT22;8704;52.006;4.374;2022-09-17T15:07:22;20.70;1.00
17178;DHT22;8704;52.006;4.374;2022-09-17T15:09:51;20.60;1.00
17178;DHT22;8704;52.006;4.374;2022-09-17T15:12:24;20.40;1.00
17178;DHT22;8704;52.006;4.374;2022-09-17T15:14:56;20.00;1.00
17178;DHT22;8704;52.006;4.374;2022-09-17T15:17:24;19.70;1.00
17178;DHT22;8704;52.006;4.374;2022-09-17T15:19:56;19.30;1.00
17178;DHT22;8704;52.006;4.374;2022-09-17T15:22:25;19.00;99.90
17178;DHT22;8704;52.006;4.374;2022-09-17T15:24:58;18.50;99.90
17178;DHT22;8704;52.006;4.374;2022-09-17T15:27:30;18.40;99.90
17178;DHT22;8704;52.006;4.374;2022-09-17T15:30:01;18.20;99.90
17178;DHT22;8704;52.006;4.374;2022-09-17T15:32:30;18.60;1.00
17178;DHT22;8704;52.006;4.374;2022-09-17T15:35:20;18.40;99.90
17178;DHT22;8704;52.006;4.374;2022-09-17T15:37:50;18.80;99.90
17178;DHT22;8704;52.006;4.374;2022-09-17T15:40:40;19.10;1.00
17178;DHT22;8704;52.006;4.374;2022-09-17T15:43:16;19.10;99.90
17178;DHT22;8704;52.006;4.374;2022-09-17T15:45:45;18.40;99.90
17178;DHT22;8704;52.006;4.374;2022-09-17T15:48:33;18.20;99.90
17178;DHT22;8704;52.006;4.374;2022-09-17T15:51:03;17.90;1.00
17178;DHT22;8704;52.006;4.374;2022-09-17T15:53:33;17.90;99.90
17178;DHT22;8704;52.006;4.374;2022-09-17T15:56:05;17.00;1.00
17178;DHT22;8704;52.006;4.374;2022-09-17T15:58:36;16.70;1.00
17178;DHT22;8704;52.006;4.374;2022-09-17T16:04:25;16.10;1.00
17178;DHT22;8704;52.006;4.374;2022-09-17T16:06:56;15.90;1.00
17178;DHT22;8704;52.006;4.374;2022-09-17T16:09:42;16.00;99.90
17178;DHT22;8704;52.006;4.374;2022-09-17T16:12:16;15.60;1.00
17178;DHT22;8704;52.006;4.374;2022-09-17T16:14:49;15.70;1.00
17178;DHT22;8704;52.006;4.374;2022-09-17T16:17:29;15.40;1.00
17178;DHT22;8704;52.006;4.374;2022-09-17T16:20:16;15.40;13.90
17178;DHT22;8704;52.006;4.374;2022-09-17T16:22:45;15.30;37.00
17178;DHT22;8704;52.006;4.374;2022-09-17T16:25:14;15.40;61.40
17178;DHT22;8704;52.006;4.374;2022-09-17T16:27:48;15.30;35.70
17178;DHT22;8704;52.006;4.374;2022-09-17T16:30:19;15.20;21.10
17178;DHT22;8704;52.006;4.374;2022-09-17T16:32:47;15.20;39.20
17178;DHT22;8704;52.006;4.374;2022-09-17T16:35:17;15.00;27.90
17178;DHT22;8704;52.006;4.374;2022-09-17T16:37:47;15.00;37.50
17178;DHT22;8704;52.006;4.374;2022-09-17T16:40:16;15.10;98.30
17178;DHT22;8704;52.006;4.374;2022-09-17T16:42:46;14.90;22.60
17178;DHT22;8704;52.006;4.374;2022-09-17T16:45:14;14.90;99.90
17178;DHT22;8704;52.006;4.374;2022-09-17T16:47:43;14.80;7.80
17178;DHT22;8704;52.006;4.374;2022-09-17T16:50:12;14.70;83.30
17178;DHT22;8704;52.006;4.374;2022-09-17T16:52:40;14.80;9.10